Time;durP1;ratioP1;P1;durP2;ratioP2;P2;SDS_P1;SDS_P2;PMS_P1;PMS_P2;Temp;Humidity;BMP_temperature;BMP_pressure;BME280_temperature;BME280_humidity;BME280_pressure;Samples;Min_cycle;Max_cycle;Signal;HPM_P1;HPM_P2
2022/05/03 00:01:27;;;;;;;8.07;5.13;;;;;;;8.25;76.85;101749.44;5251467;28;20036;-66
2022/05/03 00:03:58;;;;;;;6.82;4.70;;;;;;;8.19;77.63;101745.31;5248257;28;20037;-67
2022/05/03 00:06:41;;;;;;;6.63;4.85;;;;;;;8.17;77.62;101754.28;5253304;28;20040;-66
2022/05/03 00:09:22;;;;;;;8.73;5.22;;;;;;;8.13;77.54;101753.59;5254150;28;20282;-66
2022/05/03 00:12:03;;;;;;;7.45;5.00;;;;;;;8.11;77.49;101744.84;5255301;28;20029;-66
2022/05/03 00:14:48;;;;;;;6.75;4.88;;;;;;;8.10;77.34;101748.44;5249554;28;20053;-66
2022/05/03 00:17:22;;;;;;;7.47;5.18;;;;;;;8.09;77.64;101740.53;5251626;28;20027;-66
2022/05/03 00:19:54;;;;;;;7.00;4.80;;;;;;;8.10;77.38;101740.47;5255121;28;20379;-66
2022/05/03 00:22:25;;;;;;;8.13;4.50;;;;;;;8.04;77.10;101738.97;5250946;28;20349;-66
2022/05/03 00:24:57;;;;;;;8.52;5.53;;;;;;;8.08;77.70;101745.00;5247569;28;20023;-66
2022/05/03 00:27:29;;;;;;;7.13;5.03;;;;;;;7.93;77.37;101736.00;5255458;28;20075;-66
2022/05/03 00:30:03;;;;;;;7.80;4.82;;;;;;;7.89;77.73;101738.91;5254669;28;20037;-66
2022/05/03 00:32:35;;;;;;;6.63;4.57;;;;;;;7.98;77.79;101731.31;5251566;28;20063;-66
2022/05/03 00:35:09;;;;;;;7.85;5.03;;;;;;;7.87;77.57;101731.00;5249599;28;20025;-66
2022/05/03 00:37:40;;;;;;;6.28;4.95;;;;;;;7.90;77.65;101730.88;5248002;28;20522;-66
2022/05/03 00:40:13;;;;;;;8.25;5.22;;;;;;;7.79;77.72;101728.75;5248976;28;20037;-66
2022/05/03 00:42:52;;;;;;;6.95;4.95;;;;;;;7.88;78.98;101734.53;5243831;28;20459;-66
2022/05/03 00:45:41;;;;;;;7.43;4.95;;;;;;;7.77;77.22;101730.63;5246224;28;20112;-66
2022/05/03 00:48:33;;;;;;;6.80;4.40;;;;;;;7.72;77.74;101731.78;5251093;28;20694;-66
2022/05/03 00:51:24;;;;;;;7.07;4.68;;;;;;;7.72;78.54;101737.94;5245929;28;20029;-66
2022/05/03 00:54:29;;;;;;;9.57;4.88;;;;;;;7.68;77.93;101739.06;5263979;28;20517;-66
2022/05/03 00:57:34;;;;;;;7.75;4.82;;;;;;;7.71;78.59;101746.00;5253258;28;20390;-66
2022/05/03 01:00:11;;;;;;;6.78;5.40;;;;;;;7.62;78.41;101734.91;5264543;28;20401;-66
2022/05/03 01:03:09;;;;;;;7.30;4.63;;;;;;;7.56;78.08;101742.31;5246444;28;20059;-66
2022/05/03 01:06:16;;;;;;;6.35;4.53;;;;;;;7.57;78.62;101741.38;5243567;28;20029;-66
2022/05/03 01:09:05;;;;;;;6.93;5.00;;;;;;;7.57;80.13;101736.06;5249192;28;20067;-66
2022/05/03 01:11:55;;;;;;;7.22;4.85;;;;;;;7.42;79.27;101742.97;5245165;28;20036;-66
2022/05/03 01:14:47;;;;;;;8.98;5.63;;;;;;;7.35;79.82;101745.09;5245700;28;20621;-66
2022/05/03 01:17:32;;;;;;;8.85;5.47;;;;;;;7.31;79.82;101745.31;5244380;28;20163;-66
2022/05/03 01:20:08;;;;;;;7.88;5.18;;;;;;;7.23;81.21;101741.25;5245351;28;20475;-66
2022/05/03 01:23:03;;;;;;;8.13;5.60;;;;;;;7.15;80.45;101731.91;5245422;28;20032;-66
2022/05/03 01:25:44;;;;;;;8.20;5.18;;;;;;;7.13;80.85;101734.63;5242477;28;20029;-66
2022/05/03 01:28:43;;;;;;;7.97;4.88;;;;;;;7.08;81.50;101726.06;5250597;28;20421;-66
2022/05/03 01:31:16;;;;;;;7.50;5.68;;;;;;;7.00;81.63;101733.50;5251413;28;20527;-66
2022/05/03 01:33:49;;;;;;;8.20;5.68;;;;;;;6.98;82.08;101730.94;5244610;28;20175;-66
2022/05/03 01:36:42;;;;;;;9.25;5.68;;;;;;;7.06;83.64;101725.25;5246630;28;20065;-66
2022/05/03 01:39:44;;;;;;;8.93;5.22;;;;;;;6.91;82.09;101732.16;5248031;28;20552;-66
2022/05/03 01:42:53;;;;;;;7.35;5.50;;;;;;;6.90;81.98;101732.22;5245353;28;20060;-66
2022/05/03 01:45:55;;;;;;;7.05;4.97;;;;;;;6.81;82.28;101729.06;5252577;28;20037;-66
2022/05/03 01:52:23;;;;;;;9.48;5.85;;;;;;;6.77;83.80;101730.16;5253602;28;20041;-66
2022/05/03 01:55:07;;;;;;;7.38;5.38;;;;;;;6.81;85.19;101723.75;5240752;28;20118;-66
2022/05/03 01:58:18;;;;;;;8.27;5.47;;;;;;;6.79;85.37;101732.72;5250370;28;20033;-66
2022/05/03 02:01:14;;;;;;;7.45;5.15;;;;;;;6.76;83.44;101733.72;5250135;28;20027;-66
2022/05/03 02:03:50;;;;;;;7.60;5.10;;;;;;;6.64;83.53;101726.34;5251552;28;20040;-66
2022/05/03 02:07:12;;;;;;;10.35;5.63;;;;;;;6.72;83.82;101712.72;5249865;28;20028;-66
2022/05/03 02:09:58;;;;;;;8.32;5.05;;;;;;;6.64;82.81;101726.34;5247407;28;20126;-66
2022/05/03 02:12:30;;;;;;;7.55;5.20;;;;;;;6.59;82.71;101729.19;5248604;28;20487;-66
2022/05/03 02:15:10;;;;;;;10.65;5.95;;;;;;;6.64;83.59;101718.38;5250279;28;20128;-66
2022/05/03 02:18:05;;;;;;;7.28;5.45;;;;;;;6.60;84.16;101724.75;5250998;28;20028;-66
2022/05/03 02:21:10;;;;;;;7.75;4.75;;;;;;;6.62;84.62;101717.59;5252628;28;20026;-66
2022/05/03 02:24:02;;;;;;;8.52;5.03;;;;;;;6.50;82.79;101713.72;5250121;28;20028;-66
2022/05/03 02:26:49;;;;;;;7.65;4.25;;;;;;;6.50;82.52;101723.44;5247958;28;20036;-66
2022/05/03 02:29:35;;;;;;;9.52;5.00;;;;;;;6.47;82.10;101722.66;5251299;28;20025;-66
2022/05/03 02:32:11;;;;;;;9.02;5.57;;;;;;;6.50;84.40;101728.75;5249915;28;20376;-66
2022/05/03 02:34:45;;;;;;;7.50;5.00;;;;;;;6.40;83.94;101725.66;5249492;28;20033;-66
2022/05/03 02:37:22;;;;;;;6.65;4.45;;;;;;;6.34;83.20;101724.13;5252272;28;20072;-66
2022/05/03 02:40:07;;;;;;;7.35;5.38;;;;;;;6.39;84.38;101716.84;5249379;28;20099;-66
2022/05/03 02:42:39;;;;;;;7.72;5.18;;;;;;;6.25;83.65;101717.47;5251600;28;20024;-66
2022/05/03 02:45:12;;;;;;;7.97;5.35;;;;;;;6.23;83.15;101718.44;5249104;28;20048;-66
2022/05/03 02:48:01;;;;;;;7.97;5.38;;;;;;;6.23;84.91;101710.50;5249575;28;20090;-66
2022/05/03 02:50:54;;;;;;;7.70;5.55;;;;;;;6.18;83.90;101713.34;5246468;28;20025;-66
2022/05/03 02:53:42;;;;;;;8.05;5.60;;;;;;;6.25;84.25;101713.94;5242039;28;20467;-66
2022/05/03 02:56:21;;;;;;;6.93;5.00;;;;;;;6.09;83.88;101727.84;5240903;28;20115;-66
2022/05/03 02:59:20;;;;;;;7.90;5.65;;;;;;;6.13;84.83;101715.34;5244183;28;20107;-66
2022/05/03 03:02:11;;;;;;;7.47;5.13;;;;;;;6.00;83.97;101725.63;5239632;28;20024;-66
2022/05/03 03:04:46;;;;;;;7.95;5.03;;;;;;;5.97;84.46;101723.09;5240975;28;20033;-66
2022/05/03 03:07:21;;;;;;;7.25;5.32;;;;;;;6.05;85.54;101726.28;5249478;28;20059;-66
2022/05/03 03:10:02;;;;;;;8.13;5.85;;;;;;;5.93;84.53;101717.97;5254636;28;20033;-66
2022/05/03 03:12:47;;;;;;;7.53;5.28;;;;;;;5.87;84.24;101714.66;5242360;28;20040;-66
2022/05/03 03:15:27;;;;;;;7.88;5.70;;;;;;;5.83;84.50;101714.84;5240609;28;20049;-66
2022/05/03 03:18:00;;;;;;;7.30;5.22;;;;;;;5.85;84.56;101715.66;5238869;28;20368;-66
2022/05/03 03:20:36;;;;;;;7.70;5.60;;;;;;;5.79;84.64;101710.59;5244638;28;20032;-66
2022/05/03 03:23:08;;;;;;;9.55;5.20;;;;;;;5.74;85.49;101713.47;5247509;28;20036;-66
2022/05/03 03:25:42;;;;;;;6.57;5.03;;;;;;;5.75;85.28;101719.59;5241146;28;20021;-66
2022/05/03 03:28:17;;;;;;;7.43;5.30;;;;;;;5.69;85.43;101710.13;5248191;28;20159;-66
2022/05/03 03:30:50;;;;;;;8.20;5.60;;;;;;;5.67;85.71;101719.94;5244651;28;20017;-66
2022/05/03 03:33:22;;;;;;;9.43;5.32;;;;;;;5.63;84.96;101718.34;5244576;28;20024;-66
2022/05/03 03:35:56;;;;;;;8.13;5.18;;;;;;;5.67;85.76;101717.28;5242841;28;20028;-66
2022/05/03 03:38:32;;;;;;;;;;;;;;;5.74;83.76;101716.09;5242990;28;20040;-66
2022/05/03 03:41:03;;;;;;;;;;;;;;;5.73;83.03;101717.03;5244949;28;19965;-66
2022/05/03 03:43:34;;;;;;;9.10;5.35;;;;;;;5.64;85.01;101709.50;5250545;28;19936;-66
2022/05/03 03:46:07;;;;;;;10.60;6.00;;;;;;;5.64;85.40;101714.78;5251925;28;20557;-66
2022/05/03 03:48:38;;;;;;;8.55;5.45;;;;;;;5.60;85.62;101714.03;5250293;28;20035;-66
2022/05/03 03:51:12;;;;;;;8.15;5.15;;;;;;;5.52;85.38;101708.19;5245610;28;20497;-66
2022/05/03 03:53:43;;;;;;;7.35;5.50;;;;;;;5.62;85.98;101717.50;5246985;28;20028;-65
2022/05/03 03:56:15;;;;;;;8.48;5.03;;;;;;;5.56;85.59;101714.22;5240911;28;20482;-66
2022/05/03 03:58:47;;;;;;;9.38;5.93;;;;;;;5.54;86.58;101718.72;5246286;28;20036;-66
2022/05/03 04:01:19;;;;;;;7.63;5.50;;;;;;;5.47;85.63;101707.53;5250257;28;20480;-66
2022/05/03 04:03:51;;;;;;;10.45;5.88;;;;;;;5.50;85.99;101715.31;5250106;28;20029;-66
2022/05/03 04:06:22;;;;;;;8.60;5.35;;;;;;;5.49;86.07;101714.47;5243461;28;20025;-66
2022/05/03 04:08:54;;;;;;;7.93;5.70;;;;;;;5.46;86.29;101717.25;5241605;28;20496;-66
2022/05/03 04:11:25;;;;;;;8.05;5.55;;;;;;;5.44;86.47;101713.78;5242328;28;20766;-66
2022/05/03 04:13:56;;;;;;;8.85;5.82;;;;;;;5.42;86.89;101709.50;5246108;28;20044;-66
2022/05/03 04:16:28;;;;;;;8.77;5.90;;;;;;;5.48;87.96;101712.78;5251766;28;20044;-66
2022/05/03 04:18:59;;;;;;;10.48;5.75;;;;;;;5.56;90.64;101714.22;5250517;28;20383;-66
2022/05/03 04:21:31;;;;;;;11.02;5.78;;;;;;;5.59;89.32;101717.59;5241894;28;20395;-66
2022/05/03 04:24:02;;;;;;;10.60;6.35;;;;;;;5.57;89.17;101716.81;5246763;28;20545;-66
2022/05/03 04:26:34;;;;;;;10.30;5.72;;;;;;;5.46;87.84;101714.59;5253532;28;20141;-66
2022/05/03 04:29:06;;;;;;;8.48;5.75;;;;;;;5.44;87.65;101719.09;5246347;28;20035;-66
2022/05/03 04:31:37;;;;;;;7.80;5.43;;;;;;;5.53;90.07;101723.16;5250252;28;20037;-66
2022/05/03 04:34:08;;;;;;;11.43;7.35;;;;;;;5.53;90.75;101724.94;5252599;28;20099;-66
2022/05/03 04:36:40;;;;;;;8.32;6.03;;;;;;;5.45;89.04;101717.31;5251151;28;20120;-66
2022/05/03 04:39:11;;;;;;;9.13;5.72;;;;;;;5.55;90.43;101723.09;5248436;28;20110;-66
2022/05/03 04:41:42;;;;;;;10.43;6.35;;;;;;;5.45;88.51;101728.75;5263923;28;20035;-66
2022/05/03 04:44:14;;;;;;;9.32;6.63;;;;;;;5.53;89.76;101724.94;5249435;28;20021;-66
2022/05/03 04:46:45;;;;;;;10.30;6.97;;;;;;;5.47;89.32;101736.66;5248405;28;20648;-66
2022/05/03 04:49:16;;;;;;;8.65;6.40;;;;;;;5.49;89.02;101729.50;5246634;28;20032;-66
2022/05/03 04:51:47;;;;;;;9.15;6.70;;;;;;;5.63;91.93;101740.38;5255001;28;20032;-66
2022/05/03 04:54:19;;;;;;;10.02;7.32;;;;;;;5.60;91.32;101743.16;5248158;28;20116;-66
2022/05/03 04:56:57;;;;;;;12.25;6.78;;;;;;;5.54;89.53;101738.09;5248229;28;20127;-66
2022/05/03 04:59:29;;;;;;;11.80;7.07;;;;;;;5.62;91.90;101741.31;5246735;28;20033;-66
2022/05/03 05:02:00;;;;;;;10.45;7.15;;;;;;;5.64;92.38;101736.81;5251182;28;20210;-66
2022/05/03 05:04:32;;;;;;;10.85;6.55;;;;;;;5.63;90.39;101734.22;5247370;28;20098;-66
2022/05/03 05:07:03;;;;;;;10.13;6.80;;;;;;;5.59;89.88;101736.13;5250982;28;20032;-66
2022/05/03 05:09:34;;;;;;;11.98;7.35;;;;;;;5.62;89.93;101743.97;5250168;28;20063;-66
2022/05/03 05:12:06;;;;;;;13.18;7.28;;;;;;;5.62;89.54;101746.59;5251942;28;20033;-66
2022/05/03 05:14:37;;;;;;;13.85;7.53;;;;;;;5.69;91.77;101748.09;5247816;28;20051;-66
2022/05/03 05:17:08;;;;;;;13.70;7.55;;;;;;;5.68;89.66;101746.34;5248366;28;20031;-66
2022/05/03 05:19:40;;;;;;;10.73;7.65;;;;;;;5.64;89.88;101746.56;5252218;28;20395;-66
2022/05/03 05:22:11;;;;;;;11.98;8.13;;;;;;;5.73;90.38;101747.94;5252149;28;20506;-66
2022/05/03 05:24:42;;;;;;;12.23;7.80;;;;;;;5.75;90.11;101743.44;5252042;28;20478;-66
2022/05/03 05:27:13;;;;;;;10.20;6.90;;;;;;;5.70;89.69;101749.78;5256209;28;20032;-66
2022/05/03 05:29:45;;;;;;;11.10;7.55;;;;;;;5.78;90.28;101748.63;5255588;28;20066;-66
2022/05/03 05:32:16;;;;;;;11.85;7.70;;;;;;;5.84;92.00;101754.50;5248649;28;20067;-66
2022/05/03 05:34:47;;;;;;;13.23;8.25;;;;;;;5.83;92.46;101759.84;5253076;28;20036;-66
2022/05/03 05:37:18;;;;;;;13.10;8.40;;;;;;;5.90;90.67;101763.97;5254962;28;20029;-66
2022/05/03 05:39:50;;;;;;;11.15;7.93;;;;;;;5.93;90.01;101766.50;5251534;28;20032;-66
2022/05/03 05:42:21;;;;;;;13.70;8.35;;;;;;;5.97;89.69;101765.47;5253426;28;20036;-66
2022/05/03 05:44:52;;;;;;;13.10;8.07;;;;;;;6.02;89.67;101768.81;5249084;28;20061;-66
2022/05/03 05:47:24;;;;;;;11.50;8.55;;;;;;;6.05;89.89;101766.00;5253070;28;20041;-66
2022/05/03 05:49:55;;;;;;;13.82;8.13;;;;;;;6.13;89.04;101770.13;5250621;28;20041;-66
2022/05/03 05:55:33;;;;;;;12.57;8.13;;;;;;;6.25;89.01;101766.94;5250352;28;20242;-66
2022/05/03 05:58:05;;;;;;;13.95;8.57;;;;;;;6.28;89.21;101777.41;5251248;28;20060;-66
2022/05/03 06:00:36;;;;;;;11.90;8.43;;;;;;;6.28;88.83;101770.31;5252019;28;20033;-66
2022/05/03 06:03:07;;;;;;;12.07;9.00;;;;;;;6.41;88.02;101770.66;5251614;28;20033;-66
2022/05/03 06:05:38;;;;;;;10.82;8.07;;;;;;;6.43;87.31;101771.44;5251774;28;20025;-66
2022/05/03 06:08:10;;;;;;;12.35;7.80;;;;;;;6.49;86.89;101765.00;5251070;28;20075;-66
2022/05/03 06:10:42;;;;;;;14.18;8.88;;;;;;;6.58;87.52;101769.03;5250942;28;20110;-66
2022/05/03 06:13:13;;;;;;;10.82;7.50;;;;;;;6.63;86.23;101774.97;5250295;28;20042;-66
2022/05/03 06:15:45;;;;;;;10.98;7.68;;;;;;;6.69;85.91;101774.69;5253692;28;20090;-66
2022/05/03 06:18:16;;;;;;;11.27;7.53;;;;;;;6.77;85.35;101780.53;5249344;28;20026;-66
2022/05/03 06:20:47;;;;;;;9.88;6.55;;;;;;;6.84;85.22;101775.81;5246807;28;20036;-66
2022/05/03 06:23:18;;;;;;;11.52;7.00;;;;;;;6.90;84.08;101782.63;5247753;28;20175;-66
2022/05/03 06:25:50;;;;;;;10.95;6.90;;;;;;;6.99;82.80;101785.72;5243709;28;20093;-66
2022/05/03 06:28:21;;;;;;;10.63;6.50;;;;;;;7.10;82.86;101782.56;5250212;28;20168;-66
2022/05/03 06:30:52;;;;;;;12.15;7.10;;;;;;;7.24;82.38;101788.06;5249991;28;20087;-66
2022/05/03 06:33:23;;;;;;;10.80;6.68;;;;;;;7.32;82.35;101784.19;5248997;28;20056;-66
2022/05/03 06:35:55;;;;;;;10.18;6.50;;;;;;;7.42;80.96;101778.38;5250230;28;20063;-66
2022/05/03 06:38:26;;;;;;;9.52;6.75;;;;;;;7.49;81.08;101780.72;5254383;28;20048;-66
2022/05/03 06:40:59;;;;;;;13.07;6.75;;;;;;;7.69;79.50;101782.41;5247870;28;20033;-66
2022/05/03 06:43:30;;;;;;;11.43;6.45;;;;;;;7.79;78.52;101781.03;5249852;28;20093;-66
2022/05/03 06:46:01;;;;;;;9.57;6.35;;;;;;;7.89;78.85;101776.97;5249552;28;20037;-66
2022/05/03 06:48:33;;;;;;;11.15;6.25;;;;;;;8.05;76.61;101769.94;5247976;28;20035;-66
2022/05/03 06:51:07;;;;;;;7.75;5.95;;;;;;;8.16;76.32;101779.16;5250742;28;20049;-66
2022/05/03 06:53:39;;;;;;;11.13;6.55;;;;;;;8.29;75.10;101771.41;5251478;28;20025;-66
2022/05/03 06:56:10;;;;;;;8.85;5.93;;;;;;;8.38;74.31;101777.13;5252469;28;20040;-66
2022/05/03 06:58:41;;;;;;;8.82;5.78;;;;;;;8.53;73.67;101783.44;5254589;28;20040;-66
2022/05/03 07:01:14;;;;;;;9.05;5.70;;;;;;;8.64;73.18;101778.41;5249490;28;20048;-66
2022/05/03 07:03:46;;;;;;;7.65;4.13;;;;;;;8.78;65.30;101782.13;5246674;28;20035;-66
2022/05/03 07:06:21;;;;;;;7.72;4.80;;;;;;;8.93;67.14;101786.63;5253735;28;20040;-66
2022/05/03 07:08:52;;;;;;;6.78;4.25;;;;;;;9.04;64.30;101786.03;5250285;28;20380;-66
2022/05/03 07:11:23;;;;;;;6.07;3.80;;;;;;;9.16;61.61;101790.69;5245219;28;20044;-66
2022/05/03 07:13:55;;;;;;;7.25;4.05;;;;;;;9.40;61.89;101795.59;5246668;28;20049;-66
2022/05/03 07:16:26;;;;;;;6.20;3.67;;;;;;;9.52;63.93;101794.91;5243442;28;20029;-66
2022/05/03 07:24:37;;;;;;;5.82;3.10;;;;;;;9.93;55.82;101793.44;5243065;28;20033;-66
2022/05/03 07:27:08;;;;;;;5.65;3.40;;;;;;;10.07;56.25;101790.84;5248312;28;20025;-66
2022/05/03 07:29:39;;;;;;;4.57;2.92;;;;;;;10.06;54.36;101794.44;5253303;28;20029;-66
2022/05/03 07:32:11;;;;;;;5.22;3.70;;;;;;;10.22;55.08;101805.09;5244899;28;20157;-66
2022/05/03 07:34:42;;;;;;;4.93;3.38;;;;;;;10.34;55.82;101804.38;5246949;28;20471;-66
2022/05/03 07:37:13;;;;;;;6.13;2.70;;;;;;;10.39;54.65;101799.63;5250036;28;20033;-66
2022/05/03 07:39:44;;;;;;;5.10;2.53;;;;;;;10.55;52.94;101804.03;5250990;28;20241;-66
2022/05/03 07:42:16;;;;;;;6.60;2.92;;;;;;;10.71;51.76;101799.44;5249919;28;20114;-67
2022/05/03 07:44:47;;;;;;;4.25;2.35;;;;;;;10.83;50.66;101792.47;5247766;28;20146;-66
2022/05/03 07:47:18;;;;;;;4.43;2.88;;;;;;;10.91;50.91;101798.22;5251680;28;20029;-66
2022/05/03 07:49:50;;;;;;;4.95;2.67;;;;;;;10.95;49.63;101801.56;5250707;28;20037;-66
2022/05/03 07:52:21;;;;;;;5.60;2.88;;;;;;;11.11;50.43;101809.47;5247987;28;20498;-66
2022/05/03 07:54:53;;;;;;;5.97;3.28;;;;;;;11.32;51.36;101799.22;5254728;28;20539;-66
2022/05/03 07:57:24;;;;;;;5.60;3.25;;;;;;;11.40;51.58;101796.91;5248797;28;20036;-66
2022/05/03 07:59:55;;;;;;;5.80;3.40;;;;;;;11.46;52.04;101799.16;5256333;28;20588;-66
2022/05/03 08:02:27;;;;;;;4.72;3.28;;;;;;;11.61;51.41;101797.31;5254837;28;20501;-66
2022/05/03 08:04:58;;;;;;;6.50;3.45;;;;;;;11.66;49.86;101799.66;5256707;28;20091;-66
2022/05/03 08:07:29;;;;;;;6.10;3.70;;;;;;;11.85;49.86;101802.00;5255467;28;20047;-66
2022/05/03 08:10:02;;;;;;;6.15;3.42;;;;;;;11.91;48.80;101804.31;5254962;28;20111;-66
2022/05/03 08:12:34;;;;;;;6.78;3.78;;;;;;;11.93;49.90;101807.75;5254831;28;20577;-66
2022/05/03 08:15:06;;;;;;;6.15;3.83;;;;;;;11.99;49.96;101793.94;5257812;28;20048;-65
2022/05/03 08:17:37;;;;;;;6.22;3.60;;;;;;;11.99;50.36;101803.81;5254871;28;20383;-67
2022/05/03 08:20:08;;;;;;;7.35;3.60;;;;;;;12.13;49.14;101809.91;5255568;28;20033;-66
2022/05/03 08:22:41;;;;;;;5.40;3.78;;;;;;;12.35;50.64;101800.44;5251617;28;20040;-66
2022/05/03 08:25:12;;;;;;;8.38;4.00;;;;;;;12.41;50.49;101802.69;5258497;28;20471;-65
2022/05/03 08:27:43;;;;;;;6.88;4.43;;;;;;;12.38;48.40;101807.38;5253626;28;20041;-66
2022/05/03 08:30:14;;;;;;;7.60;4.28;;;;;;;12.55;50.63;101809.75;5256119;28;20029;-66
2022/05/03 08:32:46;;;;;;;7.40;4.30;;;;;;;12.63;50.89;101810.06;5254984;28;20029;-66
2022/05/03 08:35:21;;;;;;;7.03;3.78;;;;;;;12.75;50.50;101811.03;5256340;28;20036;-66
2022/05/03 08:43:32;;;;;;;6.50;4.50;;;;;;;13.06;50.30;101807.06;5257466;28;20041;-66
2022/05/03 08:46:06;;;;;;;9.50;5.40;;;;;;;12.83;51.40;101803.34;5254934;28;20033;-66
2022/05/03 08:48:42;;;;;;;8.37;4.97;;;;;;;13.12;50.76;101803.06;5249166;28;20029;-67
2022/05/03 08:51:16;;;;;;;7.40;5.15;;;;;;;13.12;51.20;101811.97;5256478;28;20025;-67
2022/05/03 08:53:47;;;;;;;7.35;5.72;;;;;;;13.18;51.80;101805.31;5254504;28;20267;-67
2022/05/03 08:56:19;;;;;;;9.65;5.63;;;;;;;13.24;50.75;101809.38;5255616;28;20032;-67
2022/05/03 08:58:51;;;;;;;8.30;5.70;;;;;;;13.33;52.65;101806.91;5252772;28;20108;-67
2022/05/03 09:01:24;;;;;;;8.68;5.70;;;;;;;13.53;51.08;101807.25;5253143;28;20036;-67
2022/05/03 09:03:57;;;;;;;8.65;5.20;;;;;;;13.49;51.21;101809.31;5249471;28;20025;-67
2022/05/03 09:06:45;;;;;;;8.85;5.97;;;;;;;13.56;53.05;101812.41;5250089;28;20255;-67
2022/05/03 09:09:19;;;;;;;7.53;5.90;;;;;;;13.69;51.95;101805.19;5252058;28;20041;-67
2022/05/03 09:11:53;;;;;;;9.07;5.43;;;;;;;13.77;53.17;101801.91;5252537;28;20064;-67
2022/05/03 09:14:43;;;;;;;8.48;5.55;;;;;;;13.81;53.03;101800.72;5251018;28;20070;-67
2022/05/03 09:17:14;;;;;;;8.85;6.47;;;;;;;13.94;51.18;101800.66;5254102;28;20040;-67
2022/05/03 09:19:45;;;;;;;8.20;5.70;;;;;;;14.12;52.49;101801.94;5254996;28;22000;-67
2022/05/03 09:25:13;;;;;;;7.65;5.18;;;;;;;14.36;51.66;101805.53;5255085;28;20025;-67
2022/05/03 09:27:44;;;;;;;;;;;;;;;14.34;54.45;101812.84;5253466;28;20021;-67
2022/05/03 09:30:15;;;;;;;7.87;5.53;;;;;;;14.56;51.90;101814.75;5254782;28;19982;-67
2022/05/03 09:32:52;;;;;;;7.72;5.80;;;;;;;14.60;51.81;101811.72;5253460;28;20419;-67
2022/05/03 09:35:34;;;;;;;7.78;5.90;;;;;;;14.67;52.42;101812.09;5251134;28;20170;-67
2022/05/03 09:38:05;;;;;;;10.27;6.10;;;;;;;14.71;51.93;101810.88;5253195;28;20056;-67
2022/05/03 09:40:40;;;;;;;8.27;5.85;;;;;;;14.72;53.70;101811.72;5252828;28;20025;-67
2022/05/03 09:43:13;;;;;;;7.07;4.88;;;;;;;14.88;53.63;101806.84;5250929;28;20029;-67
2022/05/03 09:45:44;;;;;;;7.03;5.70;;;;;;;14.93;51.93;101801.97;5252860;28;20016;-67
2022/05/03 09:48:15;;;;;;;7.40;5.78;;;;;;;14.80;52.82;101790.47;5248152;28;20040;-67
2022/05/03 09:50:47;;;;;;;8.25;5.95;;;;;;;14.95;53.54;101804.53;5250268;28;20422;-67
2022/05/03 09:53:19;;;;;;;6.90;5.47;;;;;;;15.03;52.99;101799.38;5250182;28;20426;-67
2022/05/03 09:55:52;;;;;;;7.70;5.50;;;;;;;15.20;52.53;101808.78;5254749;28;20106;-67
2022/05/03 09:58:24;;;;;;;6.75;5.18;;;;;;;15.19;51.96;101810.63;5247202;28;20770;-67
2022/05/03 10:00:56;;;;;;;7.45;5.50;;;;;;;15.12;52.02;101803.19;5252329;28;20054;-68
2022/05/03 10:03:27;;;;;;;7.57;5.55;;;;;;;15.34;51.97;101797.78;5250306;28;20029;-68
2022/05/03 10:05:58;;;;;;;7.90;5.47;;;;;;;15.51;52.18;101795.53;5250908;28;20021;-67
2022/05/03 10:08:30;;;;;;;9.43;6.57;;;;;;;15.42;52.41;101805.22;5251413;28;20032;-67
2022/05/03 10:11:01;;;;;;;8.77;6.70;;;;;;;15.33;52.00;101805.97;5248619;28;20086;-68
2022/05/03 10:13:32;;;;;;;8.57;6.50;;;;;;;15.33;54.40;101796.06;5252724;28;20453;-67
2022/05/03 10:22:01;;;;;;;7.57;5.93;;;;;;;15.67;52.86;101798.69;5254579;28;20032;-67
2022/05/03 10:24:52;;;;;;;10.63;5.70;;;;;;;15.65;52.24;101798.78;5253287;28;20020;-67
2022/05/03 10:27:25;;;;;;;7.80;5.13;;;;;;;15.73;50.86;101786.56;5246786;28;20398;-67
2022/05/03 10:30:20;;;;;;;10.55;6.30;;;;;;;15.65;51.67;101785.34;5253728;28;20170;-67
2022/05/03 10:33:28;;;;;;;;;;;;;;;15.74;52.67;101783.75;5246470;28;20028;-68
2022/05/03 10:36:01;;;;;;;10.43;6.90;;;;;;;15.75;52.21;101780.09;5248220;28;20306;-67
2022/05/03 10:38:39;;;;;;;10.10;6.22;;;;;;;15.74;52.48;101789.13;5251574;28;20028;-68
2022/05/03 10:41:11;;;;;;;9.20;7.18;;;;;;;15.85;51.53;101778.31;5249236;28;20114;-68
2022/05/03 10:43:42;;;;;;;9.90;6.50;;;;;;;15.91;53.36;101773.41;5247434;28;20025;-68
2022/05/03 10:46:21;;;;;;;6.78;5.05;;;;;;;16.12;51.14;101770.72;5247974;28;20048;-68
2022/05/03 10:49:11;;;;;;;8.80;5.40;;;;;;;16.34;51.73;101769.72;5247459;28;20071;-66
2022/05/03 10:51:42;;;;;;;8.75;5.85;;;;;;;16.40;51.74;101767.38;5243430;28;20944;-67
2022/05/03 10:54:14;;;;;;;8.77;5.43;;;;;;;16.79;49.99;101759.47;5250261;28;20043;-68
2022/05/03 10:57:04;;;;;;;8.18;5.93;;;;;;;16.89;50.81;101761.41;5246165;28;20615;-69
2022/05/03 10:59:48;;;;;;;9.13;6.05;;;;;;;17.06;49.77;101763.44;5246155;28;20029;-67
2022/05/03 11:02:22;;;;;;;6.95;5.57;;;;;;;17.09;48.62;101768.56;5253216;28;20059;-67
2022/05/03 11:05:16;;;;;;;8.02;5.72;;;;;;;17.08;49.57;101763.31;5251983;28;20027;-67
2022/05/03 11:08:21;;;;;;;7.60;6.03;;;;;;;16.87;49.14;101760.69;5249156;28;20040;-68
2022/05/03 11:10:52;;;;;;;;;;;;;;;16.86;48.09;101759.84;5252382;28;20391;-68
2022/05/03 11:13:37;;;;;;;7.23;5.37;;;;;;;16.90;48.82;101755.88;5246363;28;20584;-67
2022/05/03 11:16:26;;;;;;;6.75;5.10;;;;;;;17.03;49.36;101756.47;5246458;28;20813;-68
2022/05/03 11:18:57;;;;;;;8.10;5.28;;;;;;;17.07;48.28;101756.19;5249423;28;20021;-67
2022/05/03 11:21:33;;;;;;;7.07;4.45;;;;;;;17.30;48.27;101746.91;5249296;28;20037;-67
2022/05/03 11:24:05;;;;;;;7.50;5.20;;;;;;;17.31;49.38;101745.88;5254100;28;20025;-68
2022/05/03 11:26:37;;;;;;;9.85;5.13;;;;;;;17.56;47.92;101732.84;5246676;28;20503;-69
2022/05/03 11:29:11;;;;;;;5.38;4.20;;;;;;;17.87;46.71;101754.34;5250128;28;20085;-68
2022/05/03 11:31:53;;;;;;;6.97;4.57;;;;;;;17.82;47.74;101736.69;5255142;28;20037;-68
2022/05/03 11:34:24;;;;;;;5.45;4.18;;;;;;;18.05;45.37;101738.28;5255506;28;20025;-68
2022/05/03 11:36:55;;;;;;;7.57;4.60;;;;;;;18.07;45.63;101729.03;5255028;28;20037;-68
2022/05/03 11:39:26;;;;;;;9.52;5.60;;;;;;;18.26;46.09;101738.09;5254636;28;20025;-69
2022/05/03 11:41:58;;;;;;;9.82;6.60;;;;;;;18.47;45.72;101727.94;5255794;28;20471;-67
2022/05/03 11:44:29;;;;;;;8.18;5.93;;;;;;;18.50;47.03;101724.91;5253007;28;20508;-67
2022/05/03 11:47:03;;;;;;;8.38;5.68;;;;;;;18.58;46.23;101724.19;5253153;28;20057;-67
2022/05/03 11:49:36;;;;;;;9.18;5.32;;;;;;;18.70;46.56;101728.41;5255337;28;20048;-67
2022/05/03 11:55:58;;;;;;;7.32;5.60;;;;;;;18.46;46.61;101722.66;5254404;28;20059;-68
2022/05/03 11:58:05;;;;;;;7.45;5.82;;;;;;;18.17;46.10;101716.34;5252833;28;20141;-65
2022/05/03 12:00:47;;;;;;;9.05;5.80;;;;;;;18.12;47.44;101715.94;5256798;28;20032;-66
2022/05/03 12:03:18;;;;;;;6.88;5.15;;;;;;;18.01;46.55;101711.56;5255713;28;20565;-67
2022/05/03 12:06:01;;;;;;;6.60;5.30;;;;;;;18.00;47.92;101712.53;5254670;28;20104;-66
2022/05/03 12:08:33;;;;;;;5.90;4.47;;;;;;;17.97;46.79;101714.69;5253978;28;20063;-66
2022/05/03 12:11:05;;;;;;;7.40;3.70;;;;;;;18.12;45.52;101712.38;5255363;28;20029;-66
2022/05/03 12:13:38;;;;;;;6.43;4.38;;;;;;;17.95;46.82;101705.88;5252357;28;20449;-66
2022/05/03 12:16:11;;;;;;;5.13;3.60;;;;;;;18.23;45.72;101709.50;5252739;28;20021;-67
2022/05/03 12:18:48;;;;;;;5.73;3.00;;;;;;;18.42;46.07;101706.75;5257737;28;20035;-66
2022/05/03 12:21:24;;;;;;;4.93;3.13;;;;;;;18.56;45.84;101700.03;5254631;28;20340;-66
2022/05/03 12:24:04;;;;;;;4.93;3.70;;;;;;;18.67;46.60;101701.66;5254326;28;20036;-66
2022/05/03 12:26:41;;;;;;;8.20;4.25;;;;;;;18.58;51.33;101695.31;5255620;28;20040;-66
2022/05/03 12:29:12;;;;;;;7.60;4.43;;;;;;;18.78;46.04;101695.22;5258647;28;20061;-66
2022/05/03 12:31:45;;;;;;;7.75;4.82;;;;;;;18.78;45.73;101695.22;5254825;28;20029;-66
2022/05/03 12:34:25;;;;;;;8.40;5.38;;;;;;;18.73;46.21;101701.06;5256407;28;20029;-66
2022/05/03 12:37:03;;;;;;;7.57;5.10;;;;;;;18.64;46.59;101691.16;5254562;28;20387;-66
2022/05/03 12:39:36;;;;;;;6.82;5.53;;;;;;;18.68;47.21;101689.88;5256120;28;20534;-66
2022/05/03 12:42:12;;;;;;;6.75;4.63;;;;;;;18.75;47.12;101690.94;5251062;28;20501;-66